createdAt,value
2017-07-09T00:01:33.998Z,69.60
2017-07-09T00:04:01.537Z,70.00
2017-07-09T00:06:29.093Z,69.30
2017-07-09T00:08:56.637Z,69.60
2017-07-09T00:11:24.203Z,69.90
2017-07-09T00:13:51.745Z,70.60
2017-07-09T00:16:19.317Z,71.30
2017-07-09T00:18:46.870Z,71.20
2017-07-09T00:21:14.459Z,71.10
2017-07-09T00:23:42.004Z,71.40
2017-07-09T00:26:09.553Z,72.80
2017-07-09T00:28:37.117Z,72.90
2017-07-09T00:31:04.662Z,72.90
2017-07-09T00:33:32.229Z,73.20
2017-07-09T00:35:59.774Z,73.00
2017-07-09T00:38:27.334Z,73.00
2017-07-09T00:40:54.889Z,72.80
2017-07-09T00:43:23.227Z,73.40
2017-07-09T00:45:50.771Z,73.40
2017-07-09T00:48:18.314Z,73.40
2017-07-09T00:50:45.874Z,73.40
2017-07-09T00:53:13.423Z,73.50
2017-07-09T00:55:40.985Z,73.10
2017-07-09T00:58:08.525Z,72.90
2017-07-09T01:00:36.086Z,72.90
2017-07-09T01:03:03.630Z,73.60
2017-07-09T01:05:31.981Z,72.90
2017-07-09T01:07:59.534Z,72.90
2017-07-09T01:10:27.085Z,73.10
2017-07-09T01:12:54.641Z,73.10
2017-07-09T01:15:22.185Z,72.60
2017-07-09T01:17:49.745Z,72.40
2017-07-09T01:20:17.297Z,72.30
2017-07-09T01:22:44.861Z,72.10
2017-07-09T01:25:12.410Z,72.90
2017-07-09T01:27:39.971Z,72.70
2017-07-09T01:30:07.518Z,72.90
2017-07-09T01:32:35.085Z,72.90
2017-07-09T01:35:02.629Z,73.10
2017-07-09T01:37:30.178Z,73.00
2017-07-09T01:39:58.506Z,72.40
2017-07-09T01:42:26.056Z,72.30
2017-07-09T01:44:53.622Z,72.50
2017-07-09T01:47:21.165Z,73.00
2017-07-09T01:49:48.742Z,73.40
2017-07-09T01:52:16.285Z,73.40
2017-07-09T01:54:43.812Z,74.00
2017-07-09T01:57:12.080Z,73.70
2017-07-09T01:59:39.583Z,73.70
2017-07-09T02:02:07.196Z,73.90
2017-07-09T02:04:34.952Z,73.50
2017-07-09T02:07:02.472Z,73.40
2017-07-09T02:09:29.976Z,72.40
2017-07-09T02:11:58.268Z,72.00
2017-07-09T02:14:26.541Z,71.90
2017-07-09T02:16:54.842Z,72.00
2017-07-09T02:19:22.348Z,72.00
2017-07-09T02:21:49.843Z,72.00
2017-07-09T02:24:17.366Z,71.90
2017-07-09T02:26:44.877Z,71.90
2017-07-09T02:29:12.395Z,71.20
2017-07-09T02:31:39.892Z,71.10
2017-07-09T02:34:07.421Z,71.10
2017-07-09T02:36:34.933Z,71.50
2017-07-09T02:39:02.464Z,70.80
2017-07-09T02:41:29.968Z,70.90
2017-07-09T02:43:57.466Z,70.20
2017-07-09T02:46:24.983Z,70.20
2017-07-09T02:48:52.483Z,70.30
2017-07-09T02:51:20.012Z,70.20
2017-07-09T02:53:47.512Z,69.10
2017-07-09T02:56:15.028Z,69.20
2017-07-09T02:58:42.542Z,69.60
2017-07-09T03:01:10.080Z,68.90
2017-07-09T03:03:37.580Z,68.90
2017-07-09T03:06:05.085Z,68.70
2017-07-09T03:08:33.371Z,69.20
2017-07-09T03:11:00.875Z,69.20
2017-07-09T03:13:28.396Z,70.00
2017-07-09T03:15:55.904Z,70.00
2017-07-09T03:18:23.427Z,70.20
2017-07-09T03:20:50.930Z,70.10
2017-07-09T03:23:18.459Z,71.80
2017-07-09T03:25:45.961Z,72.30
2017-07-09T03:28:13.465Z,71.70
2017-07-09T03:30:40.993Z,71.90
2017-07-09T03:33:08.496Z,72.10
2017-07-09T03:35:36.016Z,73.30
2017-07-09T03:38:03.519Z,73.20
2017-07-09T03:40:31.044Z,72.80
2017-07-09T03:42:58.543Z,74.00
2017-07-09T03:45:26.061Z,76.10
2017-07-09T03:47:53.568Z,77.10
2017-07-09T03:50:21.091Z,77.90
2017-07-09T03:52:48.592Z,77.20
2017-07-09T03:55:16.092Z,77.10
2017-07-09T03:57:43.611Z,78.20
2017-07-09T04:00:11.125Z,78.40
2017-07-09T04:02:38.649Z,76.40
2017-07-09T04:05:06.155Z,76.40
2017-07-09T04:07:33.671Z,76.20
2017-07-09T04:10:01.179Z,74.50
2017-07-09T04:12:28.715Z,73.70
2017-07-09T04:14:56.220Z,76.80
2017-07-09T04:17:23.728Z,78.00
2017-07-09T04:19:51.248Z,79.50
2017-07-09T04:22:19.511Z,79.30
2017-07-09T04:24:47.800Z,81.30
2017-07-09T04:27:16.064Z,80.60
2017-07-09T04:29:43.593Z,80.60
2017-07-09T04:32:11.099Z,79.40
2017-07-09T04:34:38.623Z,79.60
2017-07-09T04:37:06.132Z,79.90
2017-07-09T04:39:33.635Z,78.00
2017-07-09T04:42:01.153Z,75.80
2017-07-09T04:44:28.654Z,74.60
2017-07-09T04:46:56.168Z,73.80
2017-07-09T04:49:23.681Z,75.70
2017-07-09T04:51:51.209Z,75.00
2017-07-09T04:54:18.714Z,75.70
2017-07-09T04:56:46.234Z,75.40
2017-07-09T04:59:13.735Z,75.70
2017-07-09T05:01:41.263Z,75.40
2017-07-09T05:04:08.766Z,76.30
2017-07-09T05:06:36.280Z,75.50
2017-07-09T05:09:03.807Z,72.60
2017-07-09T05:11:31.317Z,70.00
2017-07-09T05:13:59.625Z,68.60
2017-07-09T05:16:27.146Z,68.60
2017-07-09T05:18:54.671Z,68.80
2017-07-09T05:21:22.188Z,68.70
2017-07-09T05:23:49.707Z,68.60
2017-07-09T05:26:17.213Z,65.50
2017-07-09T05:28:44.739Z,64.20
2017-07-09T05:31:13.011Z,63.30
2017-07-09T05:33:40.518Z,63.30
2017-07-09T05:36:08.040Z,64.20
2017-07-09T05:38:36.308Z,64.30
2017-07-09T05:41:03.827Z,64.30
2017-07-09T05:43:31.327Z,64.90
2017-07-09T05:45:59.611Z,65.80
2017-07-09T05:48:27.879Z,66.60
2017-07-09T05:50:56.168Z,67.60
2017-07-09T05:53:23.681Z,67.60
2017-07-09T05:55:51.210Z,66.90
2017-07-09T05:58:18.708Z,67.60
2017-07-09T06:00:46.217Z,67.10
2017-07-09T06:03:13.731Z,66.50
2017-07-09T06:05:41.232Z,67.50
2017-07-09T06:08:08.752Z,68.00
2017-07-09T06:10:37.028Z,68.20
2017-07-09T06:13:04.551Z,68.20
2017-07-09T06:15:32.051Z,67.70
2017-07-09T06:17:59.573Z,68.20
2017-07-09T06:20:27.071Z,69.10
2017-07-09T06:22:54.834Z,68.90
2017-07-09T06:25:23.100Z,69.80
2017-07-09T06:27:50.608Z,69.80
2017-07-09T06:30:18.135Z,70.40
2017-07-09T06:32:45.640Z,70.10
2017-07-09T06:35:13.160Z,70.70
2017-07-09T06:37:40.686Z,70.30
2017-07-09T06:40:08.214Z,70.30
2017-07-09T06:42:35.723Z,70.70
2017-07-09T06:45:03.243Z,71.60
2017-07-09T06:47:30.747Z,73.70
2017-07-09T06:49:58.271Z,73.60
2017-07-09T06:52:25.771Z,74.80
2017-07-09T06:54:53.277Z,74.80
2017-07-09T06:57:20.804Z,76.40
2017-07-09T06:59:48.316Z,75.10
2017-07-09T07:02:16.608Z,78.40
2017-07-09T07:04:44.885Z,79.70
2017-07-09T07:07:13.171Z,79.60
2017-07-09T07:09:40.671Z,79.50
2017-07-09T07:12:08.191Z,80.60
2017-07-09T07:14:35.751Z,82.10
2017-07-09T07:17:03.242Z,82.60
2017-07-09T07:19:30.748Z,83.40
2017-07-09T07:21:58.258Z,83.90
2017-07-09T07:24:25.775Z,84.90
2017-07-09T07:26:53.280Z,84.80
2017-07-09T07:29:20.811Z,85.20
2017-07-09T07:31:48.321Z,85.50
2017-07-09T07:34:15.836Z,86.40
2017-07-09T07:36:43.541Z,87.70
2017-07-09T07:39:11.064Z,88.30
2017-07-09T07:41:38.569Z,90.00
2017-07-09T07:44:06.108Z,90.40
2017-07-09T07:46:33.631Z,90.40
2017-07-09T07:49:01.136Z,90.90
2017-07-09T07:51:28.660Z,90.90
2017-07-09T07:53:56.172Z,91.00
2017-07-09T07:56:24.460Z,90.80
2017-07-09T07:58:51.964Z,90.90
2017-07-09T08:01:19.488Z,91.40
2017-07-09T08:03:46.996Z,91.40
2017-07-09T08:06:14.503Z,90.80
2017-07-09T08:08:42.040Z,90.30
2017-07-09T08:11:10.320Z,90.60
2017-07-09T08:13:37.843Z,90.60
2017-07-09T08:16:05.350Z,90.20
2017-07-09T08:18:32.876Z,90.00
2017-07-09T08:21:01.143Z,88.10
2017-07-09T08:23:28.671Z,87.80
2017-07-09T08:25:56.175Z,88.60
2017-07-09T08:28:23.680Z,87.30
2017-07-09T08:30:51.201Z,87.90
2017-07-09T08:33:19.471Z,86.60
2017-07-09T08:35:47.753Z,87.40
2017-07-09T08:38:15.255Z,87.40
2017-07-09T08:40:42.775Z,87.30
2017-07-09T08:43:10.281Z,86.80
2017-07-09T08:45:37.808Z,86.70
2017-07-09T08:48:05.317Z,86.10
2017-07-09T08:50:32.835Z,86.20
2017-07-09T08:53:00.363Z,87.10
2017-07-09T08:55:28.631Z,85.50
2017-07-09T08:57:56.919Z,83.90
2017-07-09T09:00:24.424Z,83.90
2017-07-09T09:02:51.939Z,83.70
2017-07-09T09:05:19.449Z,84.00
2017-07-09T09:07:46.972Z,82.40
2017-07-09T09:10:14.473Z,81.00
2017-07-09T09:12:41.995Z,81.50
2017-07-09T09:15:09.516Z,81.90
2017-07-09T09:17:37.797Z,77.20
2017-07-09T09:20:05.319Z,77.30
2017-07-09T09:22:32.819Z,74.90
2017-07-09T09:25:00.339Z,76.20
2017-07-09T09:27:27.844Z,76.10
2017-07-09T09:29:55.380Z,74.60
2017-07-09T09:32:23.664Z,76.10
2017-07-09T09:34:51.933Z,75.30
2017-07-09T09:37:20.224Z,76.10
2017-07-09T09:39:47.997Z,76.00
2017-07-09T09:42:15.520Z,73.80
2017-07-09T09:44:43.025Z,75.20
2017-07-09T09:47:10.543Z,72.80
2017-07-09T09:49:38.040Z,73.30
2017-07-09T09:52:05.567Z,72.90
2017-07-09T09:54:33.831Z,72.60
2017-07-09T09:57:01.332Z,72.60
2017-07-09T09:59:28.855Z,72.80
2017-07-09T10:01:56.360Z,71.80
2017-07-09T10:06:57.656Z,72.90
2017-07-09T10:09:25.180Z,73.00
2017-07-09T10:11:52.687Z,67.90
2017-07-09T10:14:20.203Z,70.40
2017-07-09T10:16:47.712Z,70.80
2017-07-09T10:19:16.004Z,69.70
2017-07-09T10:21:43.504Z,69.60
2017-07-09T10:24:11.033Z,68.70
2017-07-09T10:26:38.909Z,68.20
2017-07-09T10:29:06.411Z,70.00
2017-07-09T10:31:33.948Z,70.30
2017-07-09T10:34:02.218Z,68.20
2017-07-09T10:36:29.735Z,68.20
2017-07-09T10:38:58.005Z,68.70
2017-07-09T10:41:26.297Z,68.60
2017-07-09T10:43:53.803Z,68.60
2017-07-09T10:46:21.328Z,70.50
2017-07-09T10:48:49.143Z,65.30
2017-07-09T10:51:16.703Z,67.60
2017-07-09T10:53:44.188Z,66.80
2017-07-09T10:56:11.693Z,65.90
2017-07-09T10:58:39.219Z,65.40
2017-07-09T11:01:06.720Z,65.30
2017-07-09T11:03:34.237Z,66.90
2017-07-09T11:06:01.745Z,67.70
2017-07-09T11:08:29.294Z,65.90
2017-07-09T11:10:56.820Z,66.20
2017-07-09T11:13:24.343Z,66.90
2017-07-09T11:15:52.628Z,64.40
2017-07-09T11:18:20.131Z,64.40
2017-07-09T11:20:47.647Z,66.00
2017-07-09T11:23:15.142Z,62.10
2017-07-09T11:25:42.668Z,62.10
2017-07-09T11:28:10.180Z,63.40
2017-07-09T11:30:37.702Z,61.90
2017-07-09T11:33:05.208Z,61.10
2017-07-09T11:35:32.707Z,61.90
2017-07-09T11:38:00.231Z,63.40
2017-07-09T11:40:27.732Z,61.10
2017-07-09T11:42:55.257Z,66.20
2017-07-09T11:45:23.530Z,62.10
2017-07-09T11:47:51.825Z,62.20
2017-07-09T11:50:19.332Z,62.00
2017-07-09T11:52:46.863Z,59.80
2017-07-09T11:55:14.364Z,60.70
2017-07-09T11:57:41.876Z,59.00
2017-07-09T12:00:09.396Z,59.30
2017-07-09T12:02:37.677Z,62.00
2017-07-09T12:05:05.967Z,59.60
2017-07-09T12:07:33.471Z,59.60
2017-07-09T12:10:01.000Z,58.90
2017-07-09T12:12:28.509Z,61.10
2017-07-09T12:14:56.049Z,57.70
2017-07-09T12:17:23.560Z,57.50
2017-07-09T12:19:51.059Z,57.20
2017-07-09T12:22:18.579Z,59.10
2017-07-09T12:24:46.088Z,59.70
2017-07-09T12:27:13.608Z,58.50
2017-07-09T12:29:41.116Z,58.50
2017-07-09T12:32:08.641Z,56.70
2017-07-09T12:34:36.149Z,55.90
2017-07-09T12:37:04.445Z,56.50
2017-07-09T12:39:31.975Z,56.50
2017-07-09T12:41:59.544Z,55.70
2017-07-09T12:44:27.074Z,56.80
2017-07-09T12:46:54.567Z,58.50
2017-07-09T12:49:22.855Z,57.10
2017-07-09T12:51:50.361Z,57.10
2017-07-09T12:54:17.886Z,56.20
2017-07-09T12:56:45.396Z,53.60
2017-07-09T12:59:12.928Z,54.70
2017-07-09T13:01:40.432Z,53.70
2017-07-09T13:04:08.703Z,54.70
2017-07-09T13:06:36.228Z,54.80
2017-07-09T13:09:03.737Z,58.20
2017-07-09T13:11:31.259Z,56.00
2017-07-09T13:13:58.772Z,55.50
2017-07-09T13:16:26.290Z,55.20
2017-07-09T13:18:53.795Z,56.00
2017-07-09T13:21:21.323Z,55.80
2017-07-09T13:23:49.591Z,55.70
2017-07-09T13:26:17.868Z,58.30
2017-07-09T13:28:46.151Z,56.70
2017-07-09T13:31:14.420Z,54.40
2017-07-09T13:33:42.700Z,56.30
2017-07-09T13:36:10.979Z,56.90
2017-07-09T13:38:38.508Z,56.90
2017-07-09T13:41:06.012Z,55.50
2017-07-09T13:43:33.539Z,57.40
2017-07-09T13:46:01.816Z,57.50
2017-07-09T13:48:29.315Z,56.80
2017-07-09T13:50:56.848Z,55.70
2017-07-09T13:53:25.120Z,53.80
2017-07-09T13:55:53.412Z,55.80
2017-07-09T13:58:20.920Z,55.80
2017-07-09T14:00:48.440Z,54.50
2017-07-09T14:03:15.944Z,55.00
2017-07-09T14:05:43.471Z,54.70
2017-07-09T14:08:10.976Z,53.50
2017-07-09T14:10:38.509Z,56.10
2017-07-09T14:13:06.094Z,55.40
2017-07-09T14:15:34.367Z,55.70
2017-07-09T14:18:02.667Z,56.60
2017-07-09T14:20:30.936Z,55.80
2017-07-09T14:22:58.468Z,55.80
2017-07-09T14:25:25.967Z,55.00
2017-07-09T14:27:53.492Z,56.10
2017-07-09T14:30:21.000Z,55.00
2017-07-09T14:32:48.528Z,56.20
2017-07-09T14:35:16.800Z,54.20
2017-07-09T14:37:45.071Z,53.80
2017-07-09T14:40:13.368Z,53.80
2017-07-09T14:42:40.876Z,53.70
2017-07-09T14:45:08.396Z,54.30
2017-07-09T14:47:35.902Z,53.50
2017-07-09T14:50:03.427Z,55.20
2017-07-09T14:52:30.923Z,54.70
2017-07-09T14:54:58.452Z,55.00
2017-07-09T14:57:25.960Z,54.90
2017-07-09T14:59:53.468Z,55.80
2017-07-09T15:02:20.993Z,53.00
2017-07-09T15:04:48.508Z,54.40
2017-07-09T15:07:16.035Z,55.20
2017-07-09T15:09:43.546Z,55.10
2017-07-09T15:12:11.833Z,59.10
2017-07-09T15:14:40.109Z,62.10
2017-07-09T15:17:08.391Z,63.60
2017-07-09T15:19:35.893Z,63.50
2017-07-09T15:22:03.423Z,67.80
2017-07-09T15:24:30.932Z,69.30
2017-07-09T15:26:58.439Z,65.10
2017-07-09T15:29:25.956Z,60.00
2017-07-09T15:31:53.460Z,58.00
2017-07-09T15:34:20.979Z,60.10
2017-07-09T15:36:48.512Z,62.60
2017-07-09T15:39:16.039Z,55.40
2017-07-09T15:41:43.555Z,55.90
2017-07-09T15:44:11.085Z,56.10
2017-07-09T15:46:38.587Z,56.80
2017-07-09T15:49:06.119Z,58.10
2017-07-09T15:51:33.629Z,60.00
2017-07-09T15:54:01.131Z,63.30
2017-07-09T15:56:28.651Z,68.60
2017-07-09T15:58:56.155Z,70.90
2017-07-09T16:01:23.683Z,73.90
2017-07-09T16:03:51.196Z,76.60
2017-07-09T16:06:18.723Z,78.70
2017-07-09T16:08:46.226Z,79.70
2017-07-09T16:11:13.751Z,78.80
2017-07-09T16:13:41.256Z,80.30
2017-07-09T16:16:08.783Z,81.50
2017-07-09T16:18:37.055Z,82.20
2017-07-09T16:21:05.004Z,82.30
2017-07-09T16:23:32.527Z,83.80
2017-07-09T16:26:00.027Z,83.80
2017-07-09T16:28:27.544Z,82.90
2017-07-09T16:30:55.051Z,83.50
2017-07-09T16:33:22.571Z,84.50
2017-07-09T16:35:50.075Z,84.50
2017-07-09T16:38:17.603Z,84.80
2017-07-09T16:40:45.476Z,84.40
2017-07-09T16:43:12.999Z,85.00
2017-07-09T16:45:40.499Z,85.80
2017-07-09T16:48:08.000Z,85.80
2017-07-09T16:50:35.524Z,86.50
2017-07-09T16:53:03.023Z,87.10
2017-07-09T16:55:30.535Z,85.80
2017-07-09T16:57:58.037Z,85.90
2017-07-09T17:00:25.563Z,85.90
2017-07-09T17:02:53.829Z,87.00
2017-07-09T17:05:22.128Z,87.50
2017-07-09T17:07:49.635Z,88.20
2017-07-09T17:10:17.148Z,88.20
2017-07-09T17:12:44.672Z,89.10
2017-07-09T17:15:12.441Z,89.20
2017-07-09T17:17:40.300Z,85.30
2017-07-09T17:20:07.803Z,85.70
2017-07-09T17:22:35.322Z,85.80
2017-07-09T17:25:02.823Z,84.60
2017-07-09T17:27:30.351Z,84.30
2017-07-09T17:29:58.656Z,86.10
2017-07-09T17:32:26.159Z,86.50
2017-07-09T17:34:53.685Z,87.00
2017-07-09T17:37:21.196Z,85.60
2017-07-09T17:39:48.716Z,86.80
2017-07-09T17:42:16.224Z,87.10
2017-07-09T17:44:44.600Z,89.50
2017-07-09T17:47:12.876Z,90.00
2017-07-09T17:49:41.178Z,90.10
2017-07-09T17:52:08.682Z,90.00
2017-07-09T17:54:36.184Z,89.90
2017-07-09T17:57:03.703Z,89.40
2017-07-09T17:59:31.211Z,90.00
2017-07-09T18:01:58.723Z,90.30
2017-07-09T18:04:26.227Z,89.90
2017-07-09T18:06:53.748Z,90.00
2017-07-09T18:09:22.020Z,90.30
2017-07-09T18:11:49.544Z,90.30
2017-07-09T18:14:17.048Z,90.40
2017-07-09T18:16:44.565Z,90.40
2017-07-09T18:19:12.095Z,90.30
2017-07-09T18:21:39.604Z,90.50
2017-07-09T18:24:07.130Z,90.30
2017-07-09T18:26:34.635Z,90.40
2017-07-09T18:29:02.164Z,90.30
2017-07-09T18:31:29.663Z,90.60
2017-07-09T18:33:57.955Z,90.80
2017-07-09T18:36:25.463Z,90.70
2017-07-09T18:38:52.964Z,90.90
2017-07-09T18:41:20.560Z,90.80
2017-07-09T18:43:48.087Z,90.70
2017-07-09T18:46:15.636Z,90.80
2017-07-09T18:48:43.903Z,91.10
2017-07-09T18:51:12.195Z,90.60
2017-07-09T18:53:39.696Z,90.60
2017-07-09T18:56:07.212Z,90.90
2017-07-09T18:58:34.716Z,90.90
2017-07-09T19:01:02.210Z,91.00
2017-07-09T19:03:30.499Z,91.10
2017-07-09T19:05:57.996Z,91.10
2017-07-09T19:08:25.520Z,91.10
2017-07-09T19:10:53.027Z,91.10
2017-07-09T19:13:20.548Z,91.00
2017-07-09T19:15:48.052Z,91.10
2017-07-09T19:18:15.568Z,91.00
2017-07-09T19:20:43.090Z,91.20
2017-07-09T19:23:11.366Z,91.20
2017-07-09T19:25:39.652Z,91.30
2017-07-09T19:28:07.926Z,91.30
2017-07-09T19:30:35.443Z,91.30
2017-07-09T19:33:02.947Z,91.40
2017-07-09T19:35:31.239Z,91.40
2017-07-09T19:37:58.751Z,91.40
2017-07-09T19:40:26.276Z,91.50
2017-07-09T19:42:53.791Z,91.40
2017-07-09T19:45:21.292Z,91.00
2017-07-09T19:47:48.811Z,91.00
2017-07-09T19:50:17.097Z,90.30
2017-07-09T19:52:44.620Z,90.20
2017-07-09T19:55:12.127Z,90.10
2017-07-09T19:57:39.647Z,90.20
2017-07-09T20:00:07.151Z,90.20
2017-07-09T20:02:34.681Z,89.90
2017-07-09T20:05:02.950Z,89.90
2017-07-09T20:07:30.451Z,89.80
2017-07-09T20:09:57.972Z,89.20
2017-07-09T20:12:26.275Z,90.00
2017-07-09T20:14:53.806Z,89.90
2017-07-09T20:17:21.324Z,90.20
2017-07-09T20:19:49.486Z,90.70
2017-07-09T20:22:16.991Z,90.60
2017-07-09T20:24:45.311Z,90.80
2017-07-09T20:27:12.819Z,90.80
2017-07-09T20:29:41.086Z,91.10
2017-07-09T20:32:08.599Z,91.00
2017-07-09T20:34:36.103Z,91.00
2017-07-09T20:37:03.621Z,91.10
2017-07-09T20:39:31.130Z,91.20
2017-07-09T20:41:58.651Z,91.20
2017-07-09T20:44:26.151Z,91.40
2017-07-09T20:46:53.676Z,91.70
2017-07-09T20:49:21.180Z,91.90
2017-07-09T20:51:48.683Z,92.50
2017-07-09T20:54:16.203Z,92.20
2017-07-09T20:56:43.708Z,92.40
2017-07-09T20:59:11.227Z,92.40
2017-07-09T21:01:38.731Z,92.70
2017-07-09T21:04:06.256Z,92.70
2017-07-09T21:06:33.767Z,93.10
2017-07-09T21:09:02.056Z,93.80
2017-07-09T21:11:29.559Z,93.50
2017-07-09T21:13:57.068Z,93.70
2017-07-09T21:16:24.587Z,93.50
2017-07-09T21:18:52.083Z,93.70
2017-07-09T21:21:19.604Z,93.80
2017-07-09T21:23:47.103Z,93.90
2017-07-09T21:26:14.622Z,93.70
2017-07-09T21:28:42.131Z,93.80
2017-07-09T21:31:09.672Z,93.80
2017-07-09T21:33:38.172Z,93.30
2017-07-09T21:36:05.688Z,93.20
2017-07-09T21:38:33.459Z,93.10
2017-07-09T21:41:00.959Z,93.20
2017-07-09T21:43:28.497Z,93.20
2017-07-09T21:45:56.003Z,93.30
2017-07-09T21:48:23.524Z,93.10
2017-07-09T21:50:51.043Z,93.10
2017-07-09T21:53:18.572Z,93.00
2017-07-09T21:55:46.071Z,93.30
2017-07-09T21:58:13.577Z,93.30
2017-07-09T22:00:41.091Z,93.30
2017-07-09T22:03:08.591Z,93.30
2017-07-09T22:05:36.116Z,93.30
2017-07-09T22:08:03.614Z,93.00
2017-07-09T22:10:31.131Z,92.90
2017-07-09T22:12:58.639Z,92.70
2017-07-09T22:15:26.168Z,92.50
2017-07-09T22:17:53.672Z,91.70
2017-07-09T22:20:21.175Z,91.70
2017-07-09T22:22:48.699Z,91.40
2017-07-09T22:25:16.203Z,91.40
2017-07-09T22:27:43.718Z,91.20
2017-07-09T22:30:11.211Z,90.90
2017-07-09T22:32:38.736Z,90.80
2017-07-09T22:35:06.260Z,90.70
2017-07-09T22:37:33.783Z,90.30
2017-07-09T22:40:01.284Z,90.10
2017-07-09T22:42:28.791Z,89.50
2017-07-09T22:44:57.076Z,89.20
2017-07-09T22:47:24.572Z,89.00
2017-07-09T22:49:52.095Z,88.60
2017-07-09T22:52:20.363Z,89.30
2017-07-09T22:54:47.884Z,89.30
2017-07-09T22:57:15.387Z,90.10
2017-07-09T22:59:42.916Z,89.60
2017-07-09T23:02:10.414Z,90.00
2017-07-09T23:04:37.936Z,90.30
2017-07-09T23:07:05.445Z,90.70
2017-07-09T23:09:32.947Z,90.90
2017-07-09T23:12:00.480Z,90.90
2017-07-09T23:14:27.990Z,91.40
2017-07-09T23:16:55.523Z,91.50
2017-07-09T23:19:23.033Z,91.90
2017-07-09T23:21:50.551Z,91.90
2017-07-09T23:24:18.823Z,92.40
2017-07-09T23:26:46.340Z,92.00
2017-07-09T23:29:13.848Z,92.00
2017-07-09T23:31:42.149Z,92.10
2017-07-09T23:34:09.663Z,92.10
2017-07-09T23:36:37.167Z,92.30
2017-07-09T23:39:04.688Z,92.60
2017-07-09T23:41:32.196Z,92.70
2017-07-09T23:43:59.722Z,93.00
2017-07-09T23:46:27.224Z,93.50
2017-07-09T23:48:54.747Z,93.70
2017-07-09T23:51:22.255Z,93.50
2017-07-09T23:53:49.772Z,93.70
2017-07-09T23:56:17.280Z,93.60
2017-07-09T23:58:44.804Z,93.30
